Wyoming State Government:     Citizen       Business       Government       Visitor       Apply for WYDOT jobs

Statewide Weather Sensors

Route Weather Station Name Milepost Date / Time Surface Status Surface Temp Precip Intensity Wind Avg Wind Gust Dir Dewpoint Humidity Air Temp Visibility
I 25 Wyo Hill 3.52 Mar 3, 2024, 07:02 PM     None None 16 mph 28 mph NW 14.0°F 65% 24.8°F > 1/2 mi
I 25 Whitaker 28.1 Mar 3, 2024, 07:02 PM N/A   None None 25 mph 34 mph NW 12.2°F 57% 24.8°F > 1/2 mi
I 25 Bear Creek 46.77 Mar 3, 2024, 07:02 PM Dry 37.6°F None None 22 mph 31 mph W 12.2°F 52% 28.4°F > 1/2 mi
I 25 Bordeaux 70.8 Mar 3, 2024, 07:02 PM Dry 37.9°F None None 25 mph 37 mph W 14.0°F 50% 30.2°F > 1/2 mi
I 25 Coleman 98.7 Mar 3, 2024, 07:02 PM Dry 34.3°F None None 15 mph 28 mph W 8.6°F 32% 33.8°F > 1/2 mi
I 25 Platte/Converse County Line 119.9 Mar 3, 2024, 07:02 PM Dry 35.6°F None None 4 mph 7 mph W 10.4°F 36% 35.6°F < 1/4 mi
I 25 Deer Creek 164.2 Mar 3, 2024, 07:02 PM Dry 36.5°F None None 4 mph 13 mph N 8.6°F 34% 32.0°F > 1/2 mi
I 25 Hat Six 181.67 Mar 3, 2024, 07:02 PM Dry 28.9°F None None 20 mph 37 mph W 6.8°F 33% 32.0°F > 1/2 mi
I 25 F Street Hill 189.51 Mar 3, 2024, 07:02 PM Dry 32.2°F None None 21 mph 25 mph SW 5.0°F 33% 30.2°F > 1/2 mi
I 25 Twenty Mile Hill 207.2 Mar 3, 2024, 07:02 PM N/A   None None 17 mph 27 mph W 8.6°F 45% 26.6°F > 1/2 mi
I 25 Smokey Gap 228.58 Mar 3, 2024, 07:02 PM Dry 30.6°F None None 11 mph 19 mph SW 15.8°F 55% 30.2°F > 1/2 mi
I 25 Tisdale 238.87 Feb 21, 2024, 11:42 PM                      
I 25 I-25 Divide 267.3 Mar 3, 2024, 07:02 PM Dry 33.1°F None None 16 mph 19 mph N 15.8°F 63% 26.6°F > 1/2 mi
I 80 Evanston POE 0.06 Mar 3, 2024, 07:02 PM N/A 158.0°F None None 14 mph 24 mph S 10.4°F 90% 12.2°F > 1/2 mi
I 80 Evanston 4.2 Mar 3, 2024, 07:02 PM N/A   None None 9 mph 12 mph S 12.2°F 95% 14.0°F > 1/2 mi
I 80 Bear River Drive 6.94 Mar 3, 2024, 07:02 PM Wet 20.7°F None None 13 mph 17 mph SW 12.2°F 79% 17.6°F > 1/2 mi
I 80 Painter 10.16 Mar 3, 2024, 07:02 PM Ice Watch 20.5°F None 6 mph 8 mph W   NaN%    
I 80 First Divide 13.86 Mar 3, 2024, 07:02 PM Ice Watch 17.8°F None None 17 mph 21 mph SW 10.4°F 92% 12.2°F > 1/2 mi
I 80 US 189 Interchange 17.66 Mar 3, 2024, 07:02 PM Ice Watch 22.1°F None None 12 mph 19 mph SW 10.4°F 79% 15.8°F > 1/2 mi
I 80 Coal Road 20.95 Mar 3, 2024, 07:02 PM Ice Watch 19.0°F None None 15 mph 20 mph W 10.4°F 82% 14.0°F > 1/2 mi
I 80 Leroy 23.35 Mar 3, 2024, 07:02 PM Ice Watch 21.2°F None None 11 mph 12 mph SW 10.4°F 79% 15.8°F > 1/2 mi
I 80 French 27.6 Mar 3, 2024, 07:02 PM Ice Warning 20.3°F None None 11 mph 14 mph SW 10.4°F 85% 14.0°F > 1/2 mi
I 80 Church Butte 52.65 Mar 3, 2024, 07:02 PM Trace Moisture 22.3°F None 17 mph 21 mph SW 12.2°F 78% 17.6°F  
I 80 Peru Hill 82.31 Mar 3, 2024, 07:02 PM Ice Watch 23.7°F None None 14 mph 21 mph SW 10.4°F 69% 19.4°F > 1/2 mi
I 80 Green River Tunnel 90.5 Mar 3, 2024, 07:02 PM Dry 27.0°F None None 14 mph 19 mph SW 10.4°F 66% 19.4°F > 1/2 mi
I 80 Rock Springs West 97.9 Mar 3, 2024, 07:02 PM N/A   None None 11 mph 16 mph W 10.4°F 65% 19.4°F > 1/2 mi
I 80 Baxter Road 111.5 Mar 3, 2024, 07:02 PM Dry 24.3°F None None 17 mph 20 mph SW -16.6°F 60% -5.8°F > 1/2 mi
I 80 Mile Marker 124.5 124.5 Mar 3, 2024, 07:02 PM Dry 24.4°F None None 14 mph 20 mph W 10.4°F 64% 19.4°F > 1/2 mi
I 80 Point of Rocks 129.8 Mar 3, 2024, 07:02 PM Dry 23.9°F None 11 mph 17 mph S 10.4°F NaN% 19.4°F > 1/2 mi
I 80 Black Butte 134.91 Mar 3, 2024, 07:02 PM Dry 21.2°F None None 14 mph 34 mph W 10.4°F 66% 19.4°F > 1/2 mi
I 80 Bitter Creek 141.83 Mar 3, 2024, 07:02 PM N/A 158.0°F None None 20 mph 27 mph W 6.8°F 64% 17.6°F > 1/2 mi
I 80 Tipton 156.72 Mar 3, 2024, 07:02 PM Trace Moisture 23.7°F None None 0 mph 0 mph SW 10.4°F 75% 17.6°F > 1/2 mi
I 80 Continental Divide 184.3 Mar 3, 2024, 07:02 PM Ice Watch 22.8°F None None 24 mph 30 mph W 8.6°F 65% 19.4°F > 1/2 mi
I 80 Sinclair 221.7 Mar 3, 2024, 07:02 PM Dry 27.7°F None None 15 mph 24 mph W 10.4°F 59% 23.0°F > 1/2 mi
I 80 Walcott Junction 234.66 Mar 3, 2024, 07:02 PM Dry 24.4°F None None 21 mph 29 mph SW 8.6°F 59% 21.2°F > 1/2 mi
I 80 Dana Ridge 244.8 Mar 3, 2024, 07:02 PM Dry 23.9°F None None 21 mph 28 mph SW 8.6°F 63% 19.4°F > 1/2 mi
I 80 Mile Marker 249.1 249.1 Mar 3, 2024, 07:02 PM Trace Moisture 22.5°F None None 23 mph 29 mph SW 8.6°F 61% 19.4°F > 1/2 mi
I 80 Halleck Ridge 252.16 Mar 3, 2024, 07:02 PM Dry 24.1°F None None NaN mph NaN mph N 5.0°F 56% 19.4°F > 1/2 mi
I 80 Elk Mountain 256.17 Mar 3, 2024, 07:02 PM Dry 23.7°F None None 17 mph 27 mph SW 8.6°F 65% 19.4°F > 1/2 mi
I 80 County Road 402 262 Mar 3, 2024, 07:02 PM N/A   None None 18 mph 34 mph SW 6.8°F 62% 17.6°F > 1/2 mi
I 80 Wagonhound 266.58 Mar 3, 2024, 07:02 PM Trace Moisture 20.1°F None None 21 mph 25 mph SW 10.4°F 76% 17.6°F > 1/2 mi
I 80 Foote Creek 269.5 Mar 3, 2024, 07:02 PM Ice Watch 21.2°F None None 19 mph 24 mph W 10.4°F 77% 15.8°F > 1/2 mi
I 80 Arlington 271.8 Mar 3, 2024, 07:02 PM Snow Warning 18.9°F Snow None 17 mph 24 mph W 8.6°F 72% 17.6°F > 1/2 mi
I 80 Arlington East 273.85 Mar 3, 2024, 07:02 PM N/A   Snow None 16 mph 25 mph W 8.6°F 71% 15.8°F > 1/2 mi
I 80 Cooper Cove 279.36 Mar 3, 2024, 07:02 PM Ice Warning 23.4°F Snow None 19 mph 28 mph S 10.4°F 74% 17.6°F > 1/2 mi
I 80 Strouss Hill 283.75 Mar 3, 2024, 07:02 PM N/A   Snow None 22 mph NaN mph W 8.6°F 65% 17.6°F > 1/2 mi
I 80 Quealy Dome 289.5 Mar 3, 2024, 07:02 PM Dry 27.3°F None None 14 mph 19 mph SW 8.6°F 61% 19.4°F > 1/2 mi
I 80 Herrick Lane 297.66 Mar 3, 2024, 07:02 PM Dry 25.3°F None None 4 mph 7 mph SE 10.4°F 66% 21.2°F > 1/2 mi
I 80 Summit East 325.8 Mar 3, 2024, 07:02 PM Snow Warning 20.7°F Snow None 12 mph 17 mph W 8.6°F 77% 14.0°F > 1/2 mi
I 80 Vedauwoo 329.4 Mar 3, 2024, 07:02 PM Snow Warning 21.4°F Snow None 13 mph 17 mph SW 10.4°F 81% 14.0°F > 1/2 mi
I 80 Lone Tree 333.32 Mar 3, 2024, 07:02 PM Snow Warning 23.5°F Snow None 12 mph 16 mph W 12.2°F 81% 15.8°F > 1/2 mi
I 80 Buford East 336.1 Mar 3, 2024, 07:02 PM Snow Warning 24.4°F None None 14 mph 17 mph W 12.2°F 80% 17.6°F > 1/2 mi
I 80 Remount Road 340.5 Mar 3, 2024, 07:02 PM Snow Watch 25.2°F None None 17 mph 24 mph SW 14.0°F 79% 19.4°F > 1/2 mi
I 80 Otto 347.69 Mar 3, 2024, 07:02 PM N/A   None None 19 mph 26 mph NW 12.2°F 67% 23.0°F > 1/2 mi
I 80 MP 353 353 Mar 3, 2024, 07:02 PM Ice Watch 31.3°F None None 22 mph 27 mph NW 14.0°F 63% 24.8°F > 1/2 mi
I 80 Cheyenne East 373 Mar 3, 2024, 07:02 PM Dry 32.5°F None None 21 mph 31 mph W 14.0°F 56% 26.6°F > 1/2 mi
I 90 Montana State Line 0.1 Mar 3, 2024, 07:02 PM Trace Moisture 29.1°F None None 6 mph 9 mph W 23.0°F 91% 24.8°F > 1/2 mi
I 90 Pompey Creek 35.3 Mar 3, 2024, 07:02 PM Dry 28.0°F None None 9 mph 11 mph W 14.0°F 61% 24.8°F > 1/2 mi
I 90 Sheridan/Johnson County Line 41.33 Jan 29, 2023, 07:04 PM                      
I 90 Piney Creek Interchange 44.7 Mar 3, 2024, 07:02 PM Dry 30.0°F None None 7 mph 9 mph N 17.6°F 75% 24.8°F > 1/2 mi
I 90 Kearny Divide 45.33 Aug 25, 2023, 12:02 PM                      
I 90 Indian Creek Road 83.3 Mar 3, 2024, 07:02 PM Dry 32.5°F None None 11 mph 13 mph NE 17.6°F 67% 26.6°F > 1/2 mi
I 90 Dead Horse 91.5 Mar 3, 2024, 07:02 PM Dry 36.1°F None None 7 mph 11 mph N 12.2°F 48% 30.2°F > 1/2 mi
I 90 Mile Marker 108 108 Mar 3, 2024, 07:02 PM Dry 32.0°F None None 7 mph 9 mph NW 14.0°F 61% 26.6°F > 1/2 mi
I 90 Inyan Kara 170.5 Mar 3, 2024, 07:02 PM Dry 32.9°F None 6 mph 7 mph NE 15.8°F 60% 26.6°F  
I 90 Beulah 205.9 Mar 3, 2024, 07:02 PM Dry 35.6°F None None 2 mph 6 mph SW 17.6°F 67% 26.6°F > 1/2 mi
US 14 Ucross 27.83 Dec 12, 2023, 09:38 AM                      
US 14 Granite Pass 38.95 Mar 3, 2024, 07:02 PM N/A   None 9 mph 15 mph W -2.2°F 62% 6.8°F < 1/4 mi
US 14 Sunny Divide 185.89 Mar 3, 2024, 07:02 PM Dry 28.6°F None None 5 mph 8 mph N 15.8°F 68% 24.8°F > 1/2 mi
US 16 Big Horn County Line 44.01 Mar 3, 2024, 07:02 PM Dry 18.5°F None NaN mph NaN mph N -5.8°F 57% 5.0°F > 1/2 mi
US 191 Farson 40.45 Mar 3, 2024, 07:02 PM Wet 43.3°F None None 1 mph 1 mph NW 8.6°F 71% 15.8°F > 1/2 mi
US 191 Warren Bridge 119.9 Mar 3, 2024, 07:02 PM N/A   None None 1 mph 2 mph N 10.4°F 89% 12.2°F > 1/2 mi
US 20 Natrona 30 Mar 3, 2024, 07:02 PM N/A   None None 24 mph 34 mph W 12.2°F 53% 26.6°F > 1/2 mi
US 20 Hiland 57.4 Mar 3, 2024, 07:02 PM Dry 27.0°F None None 22 mph 30 mph SW 15.8°F 72% 23.0°F > 1/2 mi
US 20 Van Tassell 57.85 Mar 3, 2024, 07:02 PM N/A 38.3°F None None 9 mph 15 mph SW 14.0°F 42% 35.6°F > 1/2 mi
US 26 Wind River Lake 26.05 Mar 3, 2024, 07:02 PM Ice Warning 13.8°F Snow None 2 mph 5 mph NE 1.4°F 83% 5.0°F > 1/2 mi
US 287 Pumpkin Vine 420.4 Mar 3, 2024, 07:02 PM N/A 24.1°F Snow None 11 mph 14 mph N 12.2°F 90% 15.8°F > 1/2 mi
US 30 Sage Junction 34 Mar 3, 2024, 07:02 PM Dry 23.9°F None None 1 mph 4 mph W 8.6°F 76% 14.0°F > 1/2 mi
US 30 Nugget Canyon 39.7 Mar 3, 2024, 07:02 PM Dry 22.1°F None None 12 mph 16 mph W 6.8°F 60% 19.4°F > 1/2 mi
US 85 Gun Barrel 46.8 Mar 3, 2024, 07:02 PM Dry 33.6°F None None 18 mph 36 mph W 12.2°F 46% 30.2°F > 1/2 mi
US 85 Four Corners 247.2 Mar 3, 2024, 07:02 PM N/A   None None 5 mph 7 mph N 15.8°F 76% 21.2°F > 1/2 mi
WY 120 Meeteetse 61.5 Mar 3, 2024, 07:02 PM Dry   None 4 mph 6 mph W -25.6°F 9% 23.0°F > 1/2 mi
WY 210 Wildcat Trail 21.52 Mar 3, 2024, 07:02 PM Ice Watch 25.3°F None None 15 mph 21 mph N 14.0°F 75% 19.4°F > 1/2 mi
WY 210 Hynds Lodge Road 24.55 Mar 3, 2024, 07:02 PM N/A   Snow None 8 mph 14 mph W 12.2°F 76% 17.6°F > 1/2 mi
WY 22 Teton Pass 11.2 Feb 8, 2024, 11:10 AM                      
WY 220 Pathfinder Hill 80.1 Mar 3, 2024, 07:02 PM Dry 25.3°F None 24 mph 34 mph SW 6.8°F 45% 24.8°F  
WY 230 Skyline 230 113.2 Mar 3, 2024, 07:02 PM N/A   Snow None NaN mph NaN mph N   NaN% 15.8°F > 1/2 mi
WY 258 Outer Drive 13.77 Mar 3, 2024, 07:02 PM Dry 34.2°F None None 26 mph 40 mph W 1.4°F 29% 30.2°F > 1/2 mi
WY 28 New South Pass 41.4 Mar 3, 2024, 07:02 PM N/A   None NaN mph NaN mph N   NaN%    
WY 28 Lower Red Canyon 59.71 Mar 3, 2024, 07:02 PM Dry 14.7°F None None 39 mph 55 mph SW 10.4°F 65% 19.4°F > 1/2 mi
WY 296 Chief Joseph 32.96 Mar 3, 2024, 07:02 PM N/A   None None 9 mph 13 mph NW 3.2°F 71% 10.4°F > 1/2 mi
WY 372 Shute Creek 34 Mar 3, 2024, 07:02 PM N/A   None None 9 mph 11 mph SW 6.8°F 71% 14.0°F > 1/2 mi
WY 387 Pine Tree Junction 131.79 Mar 3, 2024, 07:02 PM Dry 33.4°F None None 6 mph 11 mph NW 1.4°F 30% 28.4°F > 1/2 mi
WY 487 Shirley Rim 37 Mar 3, 2024, 07:02 PM Dry 25.2°F None None 25 mph 34 mph W 3.2°F 42% 21.2°F > 1/2 mi
WY 59 Belle Fourche 87 Mar 3, 2024, 07:02 PM Dry 32.0°F None 2 mph 4 mph NE 14.0°F 67% 23.0°F  
WY 789 Beaver Rim 48.1 Mar 3, 2024, 07:02 PM     None None 22 mph 37 mph W -29.2°F 9% 19.4°F > 1/2 mi